sensor_id;sensor_type;location;lat;lon;timestamp;P1;durP1;ratioP1;P2;durP2;ratioP2
4011;SDS011;2020;48.682;9.024;2023-07-30T00:01:31;2.93;;;2.83;;
4011;SDS011;2020;48.682;9.024;2023-07-30T00:03:57;3.67;;;3.37;;
4011;SDS011;2020;48.682;9.024;2023-07-30T00:06:23;3.97;;;3.60;;
4011;SDS011;2020;48.682;9.024;2023-07-30T00:08:48;2.77;;;2.50;;
4011;SDS011;2020;48.682;9.024;2023-07-30T00:11:13;3.10;;;3.00;;
4011;SDS011;2020;48.682;9.024;2023-07-30T00:13:38;5.03;;;2.97;;
4011;SDS011;2020;48.682;9.024;2023-07-30T00:16:04;2.57;;;2.47;;
4011;SDS011;2020;48.682;9.024;2023-07-30T00:18:29;2.30;;;2.20;;
4011;SDS011;2020;48.682;9.024;2023-07-30T00:20:54;2.83;;;2.70;;
4011;SDS011;2020;48.682;9.024;2023-07-30T00:23:19;2.47;;;2.30;;
4011;SDS011;2020;48.682;9.024;2023-07-30T00:25:45;3.03;;;2.93;;
4011;SDS011;2020;48.682;9.024;2023-07-30T00:28:10;2.97;;;2.77;;
4011;SDS011;2020;48.682;9.024;2023-07-30T00:30:35;2.97;;;2.47;;
4011;SDS011;2020;48.682;9.024;2023-07-30T00:33:00;2.87;;;2.67;;
4011;SDS011;2020;48.682;9.024;2023-07-30T00:35:26;2.57;;;2.47;;
4011;SDS011;2020;48.682;9.024;2023-07-30T00:37:51;2.70;;;2.60;;
4011;SDS011;2020;48.682;9.024;2023-07-30T00:40:17;2.47;;;2.37;;
4011;SDS011;2020;48.682;9.024;2023-07-30T00:42:42;3.53;;;2.80;;
4011;SDS011;2020;48.682;9.024;2023-07-30T00:45:08;2.73;;;2.53;;
4011;SDS011;2020;48.682;9.024;2023-07-30T00:47:34;2.50;;;2.17;;
4011;SDS011;2020;48.682;9.024;2023-07-30T00:50:00;2.10;;;2.10;;
4011;SDS011;2020;48.682;9.024;2023-07-30T00:52:26;2.90;;;2.40;;
4011;SDS011;2020;48.682;9.024;2023-07-30T00:54:52;2.70;;;2.50;;
4011;SDS011;2020;48.682;9.024;2023-07-30T00:57:19;2.40;;;2.30;;
4011;SDS011;2020;48.682;9.024;2023-07-30T00:59:45;3.07;;;2.70;;
4011;SDS011;2020;48.682;9.024;2023-07-30T01:02:13;5.03;;;2.30;;
4011;SDS011;2020;48.682;9.024;2023-07-30T01:04:38;1.93;;;1.93;;
4011;SDS011;2020;48.682;9.024;2023-07-30T01:07:04;2.00;;;1.90;;
4011;SDS011;2020;48.682;9.024;2023-07-30T01:09:30;2.80;;;2.70;;
4011;SDS011;2020;48.682;9.024;2023-07-30T01:11:56;1.80;;;1.80;;
4011;SDS011;2020;48.682;9.024;2023-07-30T01:14:22;1.83;;;1.83;;
4011;SDS011;2020;48.682;9.024;2023-07-30T01:16:48;1.90;;;1.80;;
4011;SDS011;2020;48.682;9.024;2023-07-30T01:19:14;2.50;;;2.40;;
4011;SDS011;2020;48.682;9.024;2023-07-30T01:21:39;2.73;;;2.63;;
4011;SDS011;2020;48.682;9.024;2023-07-30T01:24:05;1.90;;;1.90;;
4011;SDS011;2020;48.682;9.024;2023-07-30T01:26:30;2.33;;;2.23;;
4011;SDS011;2020;48.682;9.024;2023-07-30T01:29:03;2.83;;;2.73;;
4011;SDS011;2020;48.682;9.024;2023-07-30T01:31:34;2.57;;;2.37;;
4011;SDS011;2020;48.682;9.024;2023-07-30T01:34:00;1.93;;;1.83;;
4011;SDS011;2020;48.682;9.024;2023-07-30T01:36:28;11.03;;;2.00;;
4011;SDS011;2020;48.682;9.024;2023-07-30T01:38:53;1.80;;;1.73;;
4011;SDS011;2020;48.682;9.024;2023-07-30T01:41:19;2.50;;;2.30;;
4011;SDS011;2020;48.682;9.024;2023-07-30T01:43:44;2.30;;;2.30;;
4011;SDS011;2020;48.682;9.024;2023-07-30T01:46:10;1.70;;;1.60;;
4011;SDS011;2020;48.682;9.024;2023-07-30T01:48:35;1.90;;;1.90;;
4011;SDS011;2020;48.682;9.024;2023-07-30T01:51:00;1.40;;;1.40;;
4011;SDS011;2020;48.682;9.024;2023-07-30T01:53:25;1.87;;;1.87;;
4011;SDS011;2020;48.682;9.024;2023-07-30T01:55:51;1.80;;;1.70;;
4011;SDS011;2020;48.682;9.024;2023-07-30T01:58:16;1.63;;;1.53;;
4011;SDS011;2020;48.682;9.024;2023-07-30T02:00:41;1.70;;;1.70;;
4011;SDS011;2020;48.682;9.024;2023-07-30T02:03:06;2.00;;;1.90;;
4011;SDS011;2020;48.682;9.024;2023-07-30T02:05:32;1.70;;;1.60;;
4011;SDS011;2020;48.682;9.024;2023-07-30T02:07:57;1.63;;;1.53;;
4011;SDS011;2020;48.682;9.024;2023-07-30T02:10:24;1.70;;;1.23;;
4011;SDS011;2020;48.682;9.024;2023-07-30T02:12:49;1.57;;;1.57;;
4011;SDS011;2020;48.682;9.024;2023-07-30T02:15:15;1.77;;;1.63;;
4011;SDS011;2020;48.682;9.024;2023-07-30T02:17:40;1.20;;;1.20;;
4011;SDS011;2020;48.682;9.024;2023-07-30T02:20:05;1.20;;;1.10;;
4011;SDS011;2020;48.682;9.024;2023-07-30T02:22:31;1.73;;;1.67;;
4011;SDS011;2020;48.682;9.024;2023-07-30T02:24:56;1.53;;;1.43;;
4011;SDS011;2020;48.682;9.024;2023-07-30T02:27:22;1.73;;;1.47;;
4011;SDS011;2020;48.682;9.024;2023-07-30T02:29:47;1.57;;;1.20;;
4011;SDS011;2020;48.682;9.024;2023-07-30T02:32:13;1.80;;;1.70;;
4011;SDS011;2020;48.682;9.024;2023-07-30T02:34:38;4.00;;;1.53;;
4011;SDS011;2020;48.682;9.024;2023-07-30T02:37:03;1.60;;;1.50;;
4011;SDS011;2020;48.682;9.024;2023-07-30T02:39:28;1.33;;;1.30;;
4011;SDS011;2020;48.682;9.024;2023-07-30T02:41:54;1.40;;;1.40;;
4011;SDS011;2020;48.682;9.024;2023-07-30T02:44:19;1.37;;;1.37;;
4011;SDS011;2020;48.682;9.024;2023-07-30T02:46:44;2.27;;;1.67;;
4011;SDS011;2020;48.682;9.024;2023-07-30T02:49:09;1.73;;;1.73;;
4011;SDS011;2020;48.682;9.024;2023-07-30T02:51:35;1.70;;;1.60;;
4011;SDS011;2020;48.682;9.024;2023-07-30T02:54:03;1.37;;;1.37;;
4011;SDS011;2020;48.682;9.024;2023-07-30T02:56:30;1.50;;;1.40;;
4011;SDS011;2020;48.682;9.024;2023-07-30T02:58:55;1.53;;;1.43;;
4011;SDS011;2020;48.682;9.024;2023-07-30T03:01:21;1.90;;;1.80;;
4011;SDS011;2020;48.682;9.024;2023-07-30T03:03:46;1.10;;;1.10;;
4011;SDS011;2020;48.682;9.024;2023-07-30T03:06:11;1.33;;;1.33;;
4011;SDS011;2020;48.682;9.024;2023-07-30T03:08:36;1.60;;;1.53;;
4011;SDS011;2020;48.682;9.024;2023-07-30T03:11:03;1.57;;;1.57;;
4011;SDS011;2020;48.682;9.024;2023-07-30T03:13:28;1.20;;;1.20;;
4011;SDS011;2020;48.682;9.024;2023-07-30T03:15:54;1.67;;;1.67;;
4011;SDS011;2020;48.682;9.024;2023-07-30T03:18:19;1.80;;;1.70;;
4011;SDS011;2020;48.682;9.024;2023-07-30T03:20:44;1.40;;;1.40;;
4011;SDS011;2020;48.682;9.024;2023-07-30T03:23:09;1.83;;;1.73;;
4011;SDS011;2020;48.682;9.024;2023-07-30T03:25:35;1.50;;;1.50;;
4011;SDS011;2020;48.682;9.024;2023-07-30T03:28:00;1.53;;;1.53;;
4011;SDS011;2020;48.682;9.024;2023-07-30T03:30:25;1.70;;;1.60;;
4011;SDS011;2020;48.682;9.024;2023-07-30T03:32:50;1.73;;;1.63;;
4011;SDS011;2020;48.682;9.024;2023-07-30T03:35:16;2.53;;;1.60;;
4011;SDS011;2020;48.682;9.024;2023-07-30T03:37:41;1.87;;;1.67;;
4011;SDS011;2020;48.682;9.024;2023-07-30T03:40:06;1.57;;;1.57;;
4011;SDS011;2020;48.682;9.024;2023-07-30T03:42:32;1.50;;;1.50;;
4011;SDS011;2020;48.682;9.024;2023-07-30T03:44:57;3.23;;;1.77;;
4011;SDS011;2020;48.682;9.024;2023-07-30T03:47:23;1.97;;;1.87;;
4011;SDS011;2020;48.682;9.024;2023-07-30T03:49:48;1.60;;;1.60;;
4011;SDS011;2020;48.682;9.024;2023-07-30T03:52:13;1.73;;;1.57;;
4011;SDS011;2020;48.682;9.024;2023-07-30T03:54:38;2.10;;;2.00;;
4011;SDS011;2020;48.682;9.024;2023-07-30T03:57:04;1.63;;;1.53;;
4011;SDS011;2020;48.682;9.024;2023-07-30T03:59:29;1.40;;;1.40;;
4011;SDS011;2020;48.682;9.024;2023-07-30T04:01:54;1.77;;;1.77;;
4011;SDS011;2020;48.682;9.024;2023-07-30T04:04:20;1.40;;;1.40;;
4011;SDS011;2020;48.682;9.024;2023-07-30T04:06:45;1.33;;;1.33;;
4011;SDS011;2020;48.682;9.024;2023-07-30T04:09:10;1.33;;;1.33;;
4011;SDS011;2020;48.682;9.024;2023-07-30T04:11:36;2.33;;;2.27;;
4011;SDS011;2020;48.682;9.024;2023-07-30T04:14:01;1.53;;;1.50;;
4011;SDS011;2020;48.682;9.024;2023-07-30T04:16:26;2.20;;;2.10;;
4011;SDS011;2020;48.682;9.024;2023-07-30T04:18:52;1.40;;;1.30;;
4011;SDS011;2020;48.682;9.024;2023-07-30T04:21:17;1.40;;;1.40;;
4011;SDS011;2020;48.682;9.024;2023-07-30T04:23:42;1.80;;;1.70;;
4011;SDS011;2020;48.682;9.024;2023-07-30T04:26:07;1.87;;;1.77;;
4011;SDS011;2020;48.682;9.024;2023-07-30T04:28:33;1.77;;;1.73;;
4011;SDS011;2020;48.682;9.024;2023-07-30T04:30:58;2.00;;;1.90;;
4011;SDS011;2020;48.682;9.024;2023-07-30T04:33:23;1.97;;;1.90;;
4011;SDS011;2020;48.682;9.024;2023-07-30T04:35:49;2.43;;;1.63;;
4011;SDS011;2020;48.682;9.024;2023-07-30T04:38:14;4.30;;;1.53;;
4011;SDS011;2020;48.682;9.024;2023-07-30T04:40:39;1.67;;;1.67;;
4011;SDS011;2020;48.682;9.024;2023-07-30T04:43:04;1.90;;;1.80;;
4011;SDS011;2020;48.682;9.024;2023-07-30T04:45:30;2.50;;;1.97;;
4011;SDS011;2020;48.682;9.024;2023-07-30T04:47:55;2.37;;;2.27;;
4011;SDS011;2020;48.682;9.024;2023-07-30T04:50:21;2.00;;;2.00;;
4011;SDS011;2020;48.682;9.024;2023-07-30T04:52:46;2.00;;;1.90;;
4011;SDS011;2020;48.682;9.024;2023-07-30T04:55:12;2.00;;;1.90;;
4011;SDS011;2020;48.682;9.024;2023-07-30T04:57:37;1.40;;;1.40;;
4011;SDS011;2020;48.682;9.024;2023-07-30T05:00:02;1.37;;;1.37;;
4011;SDS011;2020;48.682;9.024;2023-07-30T05:02:28;1.83;;;1.83;;
4011;SDS011;2020;48.682;9.024;2023-07-30T05:04:53;2.00;;;1.90;;
4011;SDS011;2020;48.682;9.024;2023-07-30T05:07:18;1.50;;;1.50;;
4011;SDS011;2020;48.682;9.024;2023-07-30T05:09:44;1.93;;;1.83;;
4011;SDS011;2020;48.682;9.024;2023-07-30T05:12:09;2.30;;;2.10;;
4011;SDS011;2020;48.682;9.024;2023-07-30T05:14:34;3.13;;;1.23;;
4011;SDS011;2020;48.682;9.024;2023-07-30T05:16:59;1.70;;;1.60;;
4011;SDS011;2020;48.682;9.024;2023-07-30T05:19:25;2.23;;;2.10;;
4011;SDS011;2020;48.682;9.024;2023-07-30T05:21:50;1.63;;;1.63;;
4011;SDS011;2020;48.682;9.024;2023-07-30T05:24:15;1.83;;;1.73;;
4011;SDS011;2020;48.682;9.024;2023-07-30T05:26:40;1.23;;;1.13;;
4011;SDS011;2020;48.682;9.024;2023-07-30T05:29:06;1.10;;;1.10;;
4011;SDS011;2020;48.682;9.024;2023-07-30T05:31:31;1.40;;;1.40;;
4011;SDS011;2020;48.682;9.024;2023-07-30T05:33:56;0.97;;;0.97;;
4011;SDS011;2020;48.682;9.024;2023-07-30T05:36:22;2.13;;;1.50;;
4011;SDS011;2020;48.682;9.024;2023-07-30T05:38:47;1.50;;;1.50;;
4011;SDS011;2020;48.682;9.024;2023-07-30T05:41:12;2.17;;;1.40;;
4011;SDS011;2020;48.682;9.024;2023-07-30T05:43:37;1.20;;;1.20;;
4011;SDS011;2020;48.682;9.024;2023-07-30T05:46:03;1.20;;;1.20;;
4011;SDS011;2020;48.682;9.024;2023-07-30T05:48:28;4.00;;;1.20;;
4011;SDS011;2020;48.682;9.024;2023-07-30T05:50:53;1.50;;;1.40;;
4011;SDS011;2020;48.682;9.024;2023-07-30T05:53:18;1.53;;;1.53;;
4011;SDS011;2020;48.682;9.024;2023-07-30T05:55:44;1.23;;;1.23;;
4011;SDS011;2020;48.682;9.024;2023-07-30T05:58:09;1.00;;;1.00;;
4011;SDS011;2020;48.682;9.024;2023-07-30T06:00:34;1.50;;;1.40;;
4011;SDS011;2020;48.682;9.024;2023-07-30T06:02:59;1.30;;;1.20;;
4011;SDS011;2020;48.682;9.024;2023-07-30T06:05:25;1.00;;;1.00;;
4011;SDS011;2020;48.682;9.024;2023-07-30T06:07:51;1.40;;;1.40;;
4011;SDS011;2020;48.682;9.024;2023-07-30T06:10:16;1.10;;;1.10;;
4011;SDS011;2020;48.682;9.024;2023-07-30T06:12:41;1.57;;;1.23;;
4011;SDS011;2020;48.682;9.024;2023-07-30T06:15:06;1.00;;;1.00;;
4011;SDS011;2020;48.682;9.024;2023-07-30T06:17:33;1.00;;;1.00;;
4011;SDS011;2020;48.682;9.024;2023-07-30T06:19:58;1.27;;;1.27;;
4011;SDS011;2020;48.682;9.024;2023-07-30T06:22:24;1.37;;;1.37;;
4011;SDS011;2020;48.682;9.024;2023-07-30T06:24:49;1.60;;;1.23;;
4011;SDS011;2020;48.682;9.024;2023-07-30T06:27:14;1.30;;;1.30;;
4011;SDS011;2020;48.682;9.024;2023-07-30T06:29:39;0.90;;;0.90;;
4011;SDS011;2020;48.682;9.024;2023-07-30T06:32:05;2.20;;;1.20;;
4011;SDS011;2020;48.682;9.024;2023-07-30T06:34:31;1.73;;;0.97;;
4011;SDS011;2020;48.682;9.024;2023-07-30T06:36:56;0.90;;;0.90;;
4011;SDS011;2020;48.682;9.024;2023-07-30T06:39:21;2.50;;;1.13;;
4011;SDS011;2020;48.682;9.024;2023-07-30T06:41:46;1.07;;;1.07;;
4011;SDS011;2020;48.682;9.024;2023-07-30T06:44:12;0.97;;;0.97;;
4011;SDS011;2020;48.682;9.024;2023-07-30T06:46:37;0.87;;;0.87;;
4011;SDS011;2020;48.682;9.024;2023-07-30T06:49:02;1.10;;;1.10;;
4011;SDS011;2020;48.682;9.024;2023-07-30T06:51:27;0.97;;;0.97;;
4011;SDS011;2020;48.682;9.024;2023-07-30T06:53:53;0.93;;;0.93;;
4011;SDS011;2020;48.682;9.024;2023-07-30T06:56:18;1.03;;;0.90;;
4011;SDS011;2020;48.682;9.024;2023-07-30T06:58:44;0.90;;;0.90;;
4011;SDS011;2020;48.682;9.024;2023-07-30T07:01:09;1.30;;;1.30;;
4011;SDS011;2020;48.682;9.024;2023-07-30T07:03:34;0.77;;;0.77;;
4011;SDS011;2020;48.682;9.024;2023-07-30T07:05:59;1.33;;;0.90;;
4011;SDS011;2020;48.682;9.024;2023-07-30T07:08:25;0.90;;;0.90;;
4011;SDS011;2020;48.682;9.024;2023-07-30T07:10:50;1.10;;;1.10;;
4011;SDS011;2020;48.682;9.024;2023-07-30T07:13:15;1.03;;;1.03;;
4011;SDS011;2020;48.682;9.024;2023-07-30T07:15:41;1.00;;;1.00;;
4011;SDS011;2020;48.682;9.024;2023-07-30T07:18:07;1.77;;;1.27;;
4011;SDS011;2020;48.682;9.024;2023-07-30T07:20:32;1.50;;;1.37;;
4011;SDS011;2020;48.682;9.024;2023-07-30T07:22:58;1.20;;;1.10;;
4011;SDS011;2020;48.682;9.024;2023-07-30T07:25:23;1.10;;;1.10;;
4011;SDS011;2020;48.682;9.024;2023-07-30T07:27:49;1.10;;;1.10;;
4011;SDS011;2020;48.682;9.024;2023-07-30T07:30:14;0.80;;;0.80;;
4011;SDS011;2020;48.682;9.024;2023-07-30T07:32:39;1.20;;;1.20;;
4011;SDS011;2020;48.682;9.024;2023-07-30T07:35:05;1.03;;;1.03;;
4011;SDS011;2020;48.682;9.024;2023-07-30T07:37:31;1.73;;;1.20;;
4011;SDS011;2020;48.682;9.024;2023-07-30T07:39:57;1.00;;;1.00;;
4011;SDS011;2020;48.682;9.024;2023-07-30T07:42:22;1.00;;;1.00;;
4011;SDS011;2020;48.682;9.024;2023-07-30T07:44:47;1.17;;;1.17;;
4011;SDS011;2020;48.682;9.024;2023-07-30T07:47:13;1.00;;;1.00;;
4011;SDS011;2020;48.682;9.024;2023-07-30T07:49:38;1.00;;;1.00;;
4011;SDS011;2020;48.682;9.024;2023-07-30T07:52:03;0.90;;;0.90;;
4011;SDS011;2020;48.682;9.024;2023-07-30T07:54:29;1.07;;;1.00;;
4011;SDS011;2020;48.682;9.024;2023-07-30T07:56:54;1.30;;;1.30;;
4011;SDS011;2020;48.682;9.024;2023-07-30T07:59:19;1.40;;;1.10;;
4011;SDS011;2020;48.682;9.024;2023-07-30T08:01:45;1.30;;;1.20;;
4011;SDS011;2020;48.682;9.024;2023-07-30T08:04:10;1.13;;;1.13;;
4011;SDS011;2020;48.682;9.024;2023-07-30T08:06:35;0.90;;;0.90;;
4011;SDS011;2020;48.682;9.024;2023-07-30T08:09:01;0.77;;;0.77;;
4011;SDS011;2020;48.682;9.024;2023-07-30T08:11:27;0.90;;;0.90;;
4011;SDS011;2020;48.682;9.024;2023-07-30T08:13:52;2.60;;;1.10;;
4011;SDS011;2020;48.682;9.024;2023-07-30T08:16:17;1.67;;;1.10;;
4011;SDS011;2020;48.682;9.024;2023-07-30T08:18:42;1.10;;;1.10;;
4011;SDS011;2020;48.682;9.024;2023-07-30T08:21:08;1.27;;;1.27;;
4011;SDS011;2020;48.682;9.024;2023-07-30T08:23:33;0.80;;;0.80;;
4011;SDS011;2020;48.682;9.024;2023-07-30T08:25:59;0.83;;;0.83;;
4011;SDS011;2020;48.682;9.024;2023-07-30T08:28:24;1.13;;;1.13;;
4011;SDS011;2020;48.682;9.024;2023-07-30T08:30:49;1.10;;;1.10;;
4011;SDS011;2020;48.682;9.024;2023-07-30T08:33:15;1.43;;;1.33;;
4011;SDS011;2020;48.682;9.024;2023-07-30T08:35:40;0.93;;;0.93;;
4011;SDS011;2020;48.682;9.024;2023-07-30T08:38:05;0.90;;;0.90;;
4011;SDS011;2020;48.682;9.024;2023-07-30T08:40:31;0.83;;;0.83;;
4011;SDS011;2020;48.682;9.024;2023-07-30T08:42:56;1.40;;;1.40;;
4011;SDS011;2020;48.682;9.024;2023-07-30T08:45:22;0.90;;;0.90;;
4011;SDS011;2020;48.682;9.024;2023-07-30T08:47:47;1.00;;;0.80;;
4011;SDS011;2020;48.682;9.024;2023-07-30T08:50:13;1.00;;;1.00;;
4011;SDS011;2020;48.682;9.024;2023-07-30T08:52:38;2.73;;;1.17;;
4011;SDS011;2020;48.682;9.024;2023-07-30T08:55:04;1.00;;;1.00;;
4011;SDS011;2020;48.682;9.024;2023-07-30T08:57:30;1.73;;;1.30;;
4011;SDS011;2020;48.682;9.024;2023-07-30T09:00:03;1.93;;;1.00;;
4011;SDS011;2020;48.682;9.024;2023-07-30T09:02:33;1.37;;;0.97;;
4011;SDS011;2020;48.682;9.024;2023-07-30T09:05:03;1.07;;;1.07;;
4011;SDS011;2020;48.682;9.024;2023-07-30T09:07:29;1.07;;;1.07;;
4011;SDS011;2020;48.682;9.024;2023-07-30T09:09:55;0.90;;;0.90;;
4011;SDS011;2020;48.682;9.024;2023-07-30T09:12:25;1.33;;;1.33;;
4011;SDS011;2020;48.682;9.024;2023-07-30T09:14:51;1.40;;;1.40;;
4011;SDS011;2020;48.682;9.024;2023-07-30T09:17:17;1.40;;;1.40;;
4011;SDS011;2020;48.682;9.024;2023-07-30T09:19:43;1.10;;;1.10;;
4011;SDS011;2020;48.682;9.024;2023-07-30T09:22:08;1.13;;;1.13;;
4011;SDS011;2020;48.682;9.024;2023-07-30T09:24:34;1.13;;;1.13;;
4011;SDS011;2020;48.682;9.024;2023-07-30T09:27:02;1.13;;;1.13;;
4011;SDS011;2020;48.682;9.024;2023-07-30T09:29:28;1.20;;;1.20;;
4011;SDS011;2020;48.682;9.024;2023-07-30T09:31:54;1.30;;;1.30;;
4011;SDS011;2020;48.682;9.024;2023-07-30T09:34:21;1.30;;;1.23;;
4011;SDS011;2020;48.682;9.024;2023-07-30T09:36:48;1.57;;;1.47;;
4011;SDS011;2020;48.682;9.024;2023-07-30T09:39:19;1.30;;;1.30;;
4011;SDS011;2020;48.682;9.024;2023-07-30T09:41:45;1.37;;;1.37;;
4011;SDS011;2020;48.682;9.024;2023-07-30T09:44:10;1.30;;;1.23;;
4011;SDS011;2020;48.682;9.024;2023-07-30T09:46:43;0.90;;;0.90;;
4011;SDS011;2020;48.682;9.024;2023-07-30T09:49:09;1.00;;;1.00;;
4011;SDS011;2020;48.682;9.024;2023-07-30T09:51:36;1.80;;;1.67;;
4011;SDS011;2020;48.682;9.024;2023-07-30T09:54:03;1.40;;;1.33;;
4011;SDS011;2020;48.682;9.024;2023-07-30T09:56:30;1.53;;;1.43;;
4011;SDS011;2020;48.682;9.024;2023-07-30T09:58:55;0.90;;;0.90;;
4011;SDS011;2020;48.682;9.024;2023-07-30T10:01:21;1.03;;;1.03;;
4011;SDS011;2020;48.682;9.024;2023-07-30T10:03:49;1.07;;;1.07;;
4011;SDS011;2020;48.682;9.024;2023-07-30T10:06:15;1.50;;;1.40;;
4011;SDS011;2020;48.682;9.024;2023-07-30T10:08:41;1.80;;;1.70;;
4011;SDS011;2020;48.682;9.024;2023-07-30T10:11:07;0.97;;;0.97;;
4011;SDS011;2020;48.682;9.024;2023-07-30T10:13:34;1.47;;;1.23;;
4011;SDS011;2020;48.682;9.024;2023-07-30T10:16:01;1.10;;;1.10;;
4011;SDS011;2020;48.682;9.024;2023-07-30T10:18:33;2.63;;;0.90;;
4011;SDS011;2020;48.682;9.024;2023-07-30T10:21:03;2.20;;;1.10;;
4011;SDS011;2020;48.682;9.024;2023-07-30T10:23:29;1.50;;;1.40;;
4011;SDS011;2020;48.682;9.024;2023-07-30T10:25:58;1.73;;;1.63;;
4011;SDS011;2020;48.682;9.024;2023-07-30T10:28:27;1.50;;;1.50;;
4011;SDS011;2020;48.682;9.024;2023-07-30T10:30:59;1.43;;;1.43;;
4011;SDS011;2020;48.682;9.024;2023-07-30T10:33:43;2.83;;;1.77;;
4011;SDS011;2020;48.682;9.024;2023-07-30T10:36:18;1.57;;;1.47;;
4011;SDS011;2020;48.682;9.024;2023-07-30T10:38:55;1.17;;;1.17;;
4011;SDS011;2020;48.682;9.024;2023-07-30T10:41:20;1.43;;;1.43;;
4011;SDS011;2020;48.682;9.024;2023-07-30T10:43:47;1.13;;;1.13;;
4011;SDS011;2020;48.682;9.024;2023-07-30T10:46:14;5.10;;;1.60;;
4011;SDS011;2020;48.682;9.024;2023-07-30T10:48:41;1.50;;;1.50;;
4011;SDS011;2020;48.682;9.024;2023-07-30T10:51:08;1.43;;;1.43;;
4011;SDS011;2020;48.682;9.024;2023-07-30T10:53:36;1.37;;;1.37;;
4011;SDS011;2020;48.682;9.024;2023-07-30T10:56:02;1.43;;;1.33;;
4011;SDS011;2020;48.682;9.024;2023-07-30T10:58:32;1.20;;;1.20;;
4011;SDS011;2020;48.682;9.024;2023-07-30T11:00:58;0.97;;;0.97;;
4011;SDS011;2020;48.682;9.024;2023-07-30T11:03:24;1.30;;;1.30;;
4011;SDS011;2020;48.682;9.024;2023-07-30T11:05:51;1.33;;;1.33;;
4011;SDS011;2020;48.682;9.024;2023-07-30T11:08:17;1.47;;;1.30;;
4011;SDS011;2020;48.682;9.024;2023-07-30T11:10:43;1.23;;;1.23;;
4011;SDS011;2020;48.682;9.024;2023-07-30T11:13:16;1.27;;;1.27;;
4011;SDS011;2020;48.682;9.024;2023-07-30T11:15:44;1.30;;;1.23;;
4011;SDS011;2020;48.682;9.024;2023-07-30T11:18:10;1.43;;;1.33;;
4011;SDS011;2020;48.682;9.024;2023-07-30T11:20:37;1.57;;;1.47;;
4011;SDS011;2020;48.682;9.024;2023-07-30T11:23:03;1.53;;;1.53;;
4011;SDS011;2020;48.682;9.024;2023-07-30T11:25:45;1.90;;;1.60;;
4011;SDS011;2020;48.682;9.024;2023-07-30T11:28:11;1.10;;;1.10;;
4011;SDS011;2020;48.682;9.024;2023-07-30T11:30:36;1.50;;;1.40;;
4011;SDS011;2020;48.682;9.024;2023-07-30T11:33:01;1.67;;;1.60;;
4011;SDS011;2020;48.682;9.024;2023-07-30T11:35:26;1.63;;;1.53;;
4011;SDS011;2020;48.682;9.024;2023-07-30T11:37:53;1.20;;;1.20;;
4011;SDS011;2020;48.682;9.024;2023-07-30T11:40:18;1.20;;;1.10;;
4011;SDS011;2020;48.682;9.024;2023-07-30T11:42:43;1.30;;;1.30;;
4011;SDS011;2020;48.682;9.024;2023-07-30T11:45:18;1.80;;;1.20;;
4011;SDS011;2020;48.682;9.024;2023-07-30T11:47:48;2.80;;;1.27;;
4011;SDS011;2020;48.682;9.024;2023-07-30T11:50:14;1.53;;;1.10;;
4011;SDS011;2020;48.682;9.024;2023-07-30T11:52:56;1.10;;;1.10;;
4011;SDS011;2020;48.682;9.024;2023-07-30T11:55:22;1.50;;;1.40;;
4011;SDS011;2020;48.682;9.024;2023-07-30T11:57:49;1.47;;;1.13;;
4011;SDS011;2020;48.682;9.024;2023-07-30T12:00:15;1.10;;;1.10;;
4011;SDS011;2020;48.682;9.024;2023-07-30T12:02:40;1.37;;;1.37;;
4011;SDS011;2020;48.682;9.024;2023-07-30T12:05:06;1.30;;;1.30;;
4011;SDS011;2020;48.682;9.024;2023-07-30T12:07:34;1.10;;;1.10;;
4011;SDS011;2020;48.682;9.024;2023-07-30T12:10:06;1.00;;;1.00;;
4011;SDS011;2020;48.682;9.024;2023-07-30T12:12:33;1.57;;;1.57;;
4011;SDS011;2020;48.682;9.024;2023-07-30T12:14:58;1.70;;;1.60;;
4011;SDS011;2020;48.682;9.024;2023-07-30T12:17:24;1.70;;;1.60;;
4011;SDS011;2020;48.682;9.024;2023-07-30T12:19:50;1.33;;;1.30;;
4011;SDS011;2020;48.682;9.024;2023-07-30T12:22:15;1.40;;;1.37;;
4011;SDS011;2020;48.682;9.024;2023-07-30T12:24:41;2.00;;;1.77;;
4011;SDS011;2020;48.682;9.024;2023-07-30T12:27:06;1.40;;;1.40;;
4011;SDS011;2020;48.682;9.024;2023-07-30T12:29:32;1.40;;;1.10;;
4011;SDS011;2020;48.682;9.024;2023-07-30T12:31:57;1.70;;;1.70;;
4011;SDS011;2020;48.682;9.024;2023-07-30T12:34:22;1.17;;;1.17;;
4011;SDS011;2020;48.682;9.024;2023-07-30T12:36:48;1.63;;;1.53;;
4011;SDS011;2020;48.682;9.024;2023-07-30T12:39:14;1.20;;;1.20;;
4011;SDS011;2020;48.682;9.024;2023-07-30T12:41:39;1.37;;;1.37;;
4011;SDS011;2020;48.682;9.024;2023-07-30T12:44:04;1.23;;;1.23;;
4011;SDS011;2020;48.682;9.024;2023-07-30T12:46:30;1.20;;;1.20;;
4011;SDS011;2020;48.682;9.024;2023-07-30T12:48:57;1.70;;;1.60;;
4011;SDS011;2020;48.682;9.024;2023-07-30T12:51:22;1.30;;;1.30;;
4011;SDS011;2020;48.682;9.024;2023-07-30T12:53:48;1.40;;;1.40;;
4011;SDS011;2020;48.682;9.024;2023-07-30T12:56:13;1.13;;;1.13;;
4011;SDS011;2020;48.682;9.024;2023-07-30T12:58:40;1.30;;;1.30;;
4011;SDS011;2020;48.682;9.024;2023-07-30T13:01:05;1.50;;;1.40;;
4011;SDS011;2020;48.682;9.024;2023-07-30T13:03:30;3.33;;;1.63;;
4011;SDS011;2020;48.682;9.024;2023-07-30T13:05:56;1.30;;;1.30;;
4011;SDS011;2020;48.682;9.024;2023-07-30T13:08:21;1.50;;;1.50;;
4011;SDS011;2020;48.682;9.024;2023-07-30T13:10:46;1.77;;;1.43;;
4011;SDS011;2020;48.682;9.024;2023-07-30T13:13:12;1.57;;;1.57;;
4011;SDS011;2020;48.682;9.024;2023-07-30T13:15:37;1.20;;;1.20;;
4011;SDS011;2020;48.682;9.024;2023-07-30T13:18:02;1.60;;;1.60;;
4011;SDS011;2020;48.682;9.024;2023-07-30T13:20:28;1.60;;;1.60;;
4011;SDS011;2020;48.682;9.024;2023-07-30T13:22:53;1.83;;;1.77;;
4011;SDS011;2020;48.682;9.024;2023-07-30T13:25:19;1.47;;;1.17;;
4011;SDS011;2020;48.682;9.024;2023-07-30T13:27:45;1.77;;;1.67;;
4011;SDS011;2020;48.682;9.024;2023-07-30T13:30:10;1.10;;;1.10;;
4011;SDS011;2020;48.682;9.024;2023-07-30T13:32:35;1.40;;;1.40;;
4011;SDS011;2020;48.682;9.024;2023-07-30T13:35:01;1.20;;;1.20;;
4011;SDS011;2020;48.682;9.024;2023-07-30T13:37:26;1.53;;;1.53;;
4011;SDS011;2020;48.682;9.024;2023-07-30T13:39:51;2.90;;;1.50;;
4011;SDS011;2020;48.682;9.024;2023-07-30T13:42:17;1.43;;;1.43;;
4011;SDS011;2020;48.682;9.024;2023-07-30T13:44:42;1.43;;;1.43;;
4011;SDS011;2020;48.682;9.024;2023-07-30T13:47:08;1.47;;;1.47;;
4011;SDS011;2020;48.682;9.024;2023-07-30T13:49:33;1.30;;;1.20;;
4011;SDS011;2020;48.682;9.024;2023-07-30T13:51:58;1.83;;;1.67;;
4011;SDS011;2020;48.682;9.024;2023-07-30T13:54:23;1.27;;;1.27;;
4011;SDS011;2020;48.682;9.024;2023-07-30T13:56:49;1.37;;;1.37;;
4011;SDS011;2020;48.682;9.024;2023-07-30T13:59:14;1.50;;;1.40;;
4011;SDS011;2020;48.682;9.024;2023-07-30T14:01:39;1.23;;;1.23;;
4011;SDS011;2020;48.682;9.024;2023-07-30T14:04:04;1.30;;;1.20;;
4011;SDS011;2020;48.682;9.024;2023-07-30T14:06:30;1.10;;;1.10;;
4011;SDS011;2020;48.682;9.024;2023-07-30T14:08:55;1.13;;;1.10;;
4011;SDS011;2020;48.682;9.024;2023-07-30T14:11:21;1.60;;;1.37;;
4011;SDS011;2020;48.682;9.024;2023-07-30T14:13:46;1.63;;;1.20;;
4011;SDS011;2020;48.682;9.024;2023-07-30T14:16:12;1.33;;;1.33;;
4011;SDS011;2020;48.682;9.024;2023-07-30T14:18:38;2.53;;;1.23;;
4011;SDS011;2020;48.682;9.024;2023-07-30T14:21:04;2.60;;;1.37;;
4011;SDS011;2020;48.682;9.024;2023-07-30T14:23:29;1.40;;;1.30;;
4011;SDS011;2020;48.682;9.024;2023-07-30T14:25:55;2.33;;;1.30;;
4011;SDS011;2020;48.682;9.024;2023-07-30T14:28:20;1.10;;;1.03;;
4011;SDS011;2020;48.682;9.024;2023-07-30T14:30:45;1.97;;;1.70;;
4011;SDS011;2020;48.682;9.024;2023-07-30T14:33:10;1.77;;;1.67;;
4011;SDS011;2020;48.682;9.024;2023-07-30T14:35:36;1.20;;;1.20;;
4011;SDS011;2020;48.682;9.024;2023-07-30T14:38:03;1.40;;;1.30;;
4011;SDS011;2020;48.682;9.024;2023-07-30T14:40:29;1.13;;;1.13;;
4011;SDS011;2020;48.682;9.024;2023-07-30T14:42:54;1.37;;;1.10;;
4011;SDS011;2020;48.682;9.024;2023-07-30T14:45:19;0.90;;;0.90;;
4011;SDS011;2020;48.682;9.024;2023-07-30T14:47:45;1.27;;;1.27;;
4011;SDS011;2020;48.682;9.024;2023-07-30T14:50:10;1.77;;;1.20;;
4011;SDS011;2020;48.682;9.024;2023-07-30T14:52:35;2.30;;;0.93;;
4011;SDS011;2020;48.682;9.024;2023-07-30T14:55:00;1.27;;;1.27;;
4011;SDS011;2020;48.682;9.024;2023-07-30T14:57:26;1.80;;;1.00;;
4011;SDS011;2020;48.682;9.024;2023-07-30T14:59:51;1.03;;;1.00;;
4011;SDS011;2020;48.682;9.024;2023-07-30T15:02:17;1.20;;;1.20;;
4011;SDS011;2020;48.682;9.024;2023-07-30T15:04:43;2.83;;;1.17;;
4011;SDS011;2020;48.682;9.024;2023-07-30T15:07:08;1.13;;;1.13;;